Time;durP1;ratioP1;P1;durP2;ratioP2;P2;SDS_P1;SDS_P2;PMS_P1;PMS_P2;Temp;Humidity;BMP_temperature;BMP_pressure;BME280_temperature;BME280_humidity;BME280_pressure;Samples;Min_cycle;Max_cycle;Signal;HPM_P1;HPM_P2
2023/11/13 00:01:50;;;;;;;1.77;1.67;;;6.80;99.90;;;;;;494207;240;29241;-72
2023/11/13 00:03:51;;;;;;;1.73;1.63;;;6.90;99.90;;;;;;494178;240;28342;-73
2023/11/13 00:05:52;;;;;;;2.10;2.00;;;6.90;99.90;;;;;;494205;240;29851;-73
2023/11/13 00:07:56;;;;;;;2.23;2.13;;;6.90;99.90;;;;;;494196;240;27592;-73
2023/11/13 00:09:55;;;;;;;1.60;1.50;;;6.90;99.90;;;;;;494190;239;27638;-73
2023/11/13 00:11:56;;;;;;;1.70;1.60;;;6.90;99.90;;;;;;494277;240;27532;-74
2023/11/13 00:13:57;;;;;;;1.80;1.70;;;7.00;99.90;;;;;;494153;239;28065;-72
2023/11/13 00:15:59;;;;;;;1.70;1.60;;;7.00;99.90;;;;;;494285;239;28110;-74
2023/11/13 00:18:01;;;;;;;1.67;1.57;;;7.00;99.90;;;;;;494124;240;27984;-72
2023/11/13 00:20:02;;;;;;;1.80;1.70;;;7.00;99.90;;;;;;494104;240;28917;-73
2023/11/13 00:22:02;;;;;;;1.60;1.50;;;7.00;99.90;;;;;;494132;240;27890;-73
2023/11/13 00:24:05;;;;;;;2.10;2.00;;;7.00;99.90;;;;;;494132;239;28034;-73
2023/11/13 00:26:05;;;;;;;2.10;2.00;;;7.00;99.90;;;;;;494165;237;28541;-73
2023/11/13 00:28:06;;;;;;;2.97;2.73;;;7.00;99.90;;;;;;494166;239;28427;-72
2023/11/13 00:30:07;;;;;;;2.10;2.00;;;7.00;99.90;;;;;;494178;240;28452;-73
2023/11/13 00:32:09;;;;;;;1.83;1.73;;;7.00;99.90;;;;;;494160;240;29489;-73
2023/11/13 00:34:10;;;;;;;2.17;2.00;;;7.00;99.90;;;;;;494156;239;27474;-72
2023/11/13 00:36:11;;;;;;;1.40;1.30;;;7.00;99.90;;;;;;494130;240;28829;-72
2023/11/13 00:38:13;;;;;;;2.00;1.33;;;7.00;99.90;;;;;;494206;240;27449;-72
2023/11/13 00:40:14;;;;;;;1.73;1.62;;;7.10;99.90;;;;;;494228;240;28977;-73
2023/11/13 00:42:16;;;;;;;1.70;1.60;;;7.10;99.90;;;;;;494277;240;27852;-73
2023/11/13 00:44:16;;;;;;;1.40;1.30;;;7.10;99.90;;;;;;494257;240;28057;-72
2023/11/13 00:46:18;;;;;;;1.63;1.53;;;7.10;99.90;;;;;;494243;240;27998;-73
2023/11/13 00:48:19;;;;;;;1.57;1.47;;;7.10;99.90;;;;;;494204;239;28032;-73
2023/11/13 00:50:21;;;;;;;1.30;1.30;;;7.20;99.90;;;;;;494248;240;28335;-72
2023/11/13 00:52:21;;;;;;;1.40;1.30;;;7.20;99.90;;;;;;494207;240;28171;-74
2023/11/13 00:54:22;;;;;;;1.40;1.30;;;7.20;99.90;;;;;;494232;239;28483;-72
2023/11/13 00:56:24;;;;;;;1.00;1.00;;;7.20;99.90;;;;;;494278;240;28478;-73
2023/11/13 00:58:26;;;;;;;1.10;1.10;;;7.20;99.90;;;;;;494173;240;28711;-72
2023/11/13 01:00:27;;;;;;;1.00;1.00;;;7.30;99.90;;;;;;494179;240;28079;-73
2023/11/13 01:02:27;;;;;;;2.50;1.07;;;7.30;99.90;;;;;;494100;239;27979;-73
2023/11/13 01:04:29;;;;;;;1.00;1.00;;;7.30;99.90;;;;;;494166;240;27986;-72
2023/11/13 01:06:30;;;;;;;1.00;1.00;;;7.30;99.90;;;;;;494169;240;27875;-73
2023/11/13 01:08:31;;;;;;;2.00;1.00;;;7.40;99.90;;;;;;494197;239;27952;-73
2023/11/13 01:10:32;;;;;;;1.30;1.20;;;7.40;99.90;;;;;;494253;240;27984;-73
2023/11/13 01:12:34;;;;;;;1.47;0.80;;;7.50;99.90;;;;;;494236;240;28008;-73
2023/11/13 01:14:35;;;;;;;1.23;1.20;;;7.40;99.90;;;;;;494182;240;27698;-73
2023/11/13 01:16:37;;;;;;;1.10;1.10;;;7.50;99.90;;;;;;494133;239;27833;-72
2023/11/13 01:18:38;;;;;;;0.90;0.90;;;7.50;99.90;;;;;;494241;240;28333;-74
2023/11/13 01:20:39;;;;;;;0.90;0.90;;;7.50;99.90;;;;;;494157;240;28029;-72
2023/11/13 01:22:40;;;;;;;0.90;0.90;;;7.50;99.90;;;;;;494192;240;27820;-73
2023/11/13 01:24:41;;;;;;;0.90;0.90;;;7.60;99.90;;;;;;494145;239;27943;-73
2023/11/13 01:26:42;;;;;;;0.80;0.80;;;7.60;99.90;;;;;;494180;240;27976;-72
2023/11/13 01:28:44;;;;;;;0.83;0.83;;;7.60;99.90;;;;;;494184;240;28334;-73
2023/11/13 01:30:45;;;;;;;1.53;0.80;;;7.60;99.90;;;;;;494161;240;28446;-72
2023/11/13 01:32:46;;;;;;;0.87;0.87;;;7.60;99.90;;;;;;494227;239;28778;-73
2023/11/13 01:34:47;;;;;;;1.13;1.10;;;7.70;99.90;;;;;;494172;239;29207;-72
2023/11/13 01:36:49;;;;;;;0.73;0.73;;;7.60;99.90;;;;;;494246;240;28375;-73
2023/11/13 01:38:50;;;;;;;0.70;0.70;;;7.60;99.90;;;;;;494169;240;28006;-73
2023/11/13 01:40:51;;;;;;;0.80;0.80;;;7.60;99.90;;;;;;494174;240;28008;-73
2023/11/13 01:42:52;;;;;;;1.00;1.00;;;7.70;99.90;;;;;;494175;240;28062;-73
2023/11/13 01:44:55;;;;;;;1.00;1.00;;;7.70;99.90;;;;;;494130;240;28064;-72
2023/11/13 01:46:55;;;;;;;1.53;1.00;;;7.70;99.90;;;;;;494125;240;27637;-72
2023/11/13 01:48:56;;;;;;;0.80;0.80;;;7.80;99.90;;;;;;494161;240;27900;-72
2023/11/13 01:50:57;;;;;;;0.73;0.73;;;7.80;99.90;;;;;;494163;240;27942;-73
2023/11/13 01:53:00;;;;;;;0.90;0.90;;;7.80;99.90;;;;;;494148;238;27904;-73
2023/11/13 01:55:00;;;;;;;0.90;0.90;;;7.80;99.90;;;;;;494160;240;28009;-74
2023/11/13 01:57:02;;;;;;;0.70;0.70;;;7.80;99.90;;;;;;494279;240;27960;-72
2023/11/13 01:59:02;;;;;;;1.00;1.00;;;7.80;99.90;;;;;;494190;240;27958;-73
2023/11/13 02:01:04;;;;;;;1.43;0.80;;;7.80;99.90;;;;;;494181;239;27917;-72
2023/11/13 02:03:05;;;;;;;0.70;0.70;;;7.80;99.90;;;;;;494157;240;28320;-72
2023/11/13 02:05:06;;;;;;;1.13;0.70;;;7.80;99.90;;;;;;494161;240;28061;-73
2023/11/13 02:07:07;;;;;;;0.70;0.70;;;7.80;99.90;;;;;;494171;240;28378;-72
2023/11/13 02:09:10;;;;;;;0.70;0.70;;;7.80;99.90;;;;;;494174;240;28526;-73
2023/11/13 02:11:10;;;;;;;0.70;0.70;;;7.80;99.90;;;;;;494250;240;29230;-73
2023/11/13 02:13:11;;;;;;;0.70;0.70;;;7.80;99.90;;;;;;494185;240;28478;-73
2023/11/13 02:15:12;;;;;;;1.23;0.73;;;7.80;99.90;;;;;;494189;240;28194;-73
2023/11/13 02:17:14;;;;;;;1.00;1.00;;;7.80;99.90;;;;;;494248;240;27577;-72
2023/11/13 02:19:15;;;;;;;1.23;1.13;;;7.80;99.90;;;;;;494256;240;27632;-73
2023/11/13 02:21:16;;;;;;;3.20;2.80;;;7.80;99.90;;;;;;494258;240;28164;-73
2023/11/13 02:23:17;;;;;;;2.17;1.60;;;7.80;99.90;;;;;;494262;240;27829;-72
2023/11/13 02:25:19;;;;;;;1.37;1.27;;;7.80;99.90;;;;;;494173;240;27835;-73
2023/11/13 02:27:21;;;;;;;1.40;1.30;;;7.80;99.90;;;;;;494184;240;27560;-72
2023/11/13 02:29:21;;;;;;;1.00;1.00;;;7.80;99.90;;;;;;494043;240;27989;-73
2023/11/13 02:31:22;;;;;;;1.40;1.30;;;7.80;99.90;;;;;;494260;240;27933;-75
2023/11/13 02:33:24;;;;;;;0.70;0.70;;;7.80;99.90;;;;;;494168;240;27785;-73
2023/11/13 02:35:25;;;;;;;0.70;0.70;;;7.90;99.90;;;;;;494183;240;28088;-72
2023/11/13 02:37:26;;;;;;;0.60;0.60;;;7.90;99.90;;;;;;494253;240;28046;-72
2023/11/13 02:39:27;;;;;;;0.80;0.80;;;8.00;99.90;;;;;;494170;240;27963;-73
2023/11/13 02:41:29;;;;;;;0.90;0.90;;;8.00;99.90;;;;;;494202;240;27982;-73
2023/11/13 02:43:30;;;;;;;0.97;0.87;;;8.00;99.90;;;;;;494247;240;28063;-72
2023/11/13 02:45:31;;;;;;;0.90;0.90;;;8.10;99.90;;;;;;494144;240;27991;-73
2023/11/13 02:47:33;;;;;;;1.00;1.00;;;8.10;99.90;;;;;;494152;239;28897;-73
2023/11/13 02:49:34;;;;;;;0.80;0.80;;;8.10;99.90;;;;;;494194;240;28493;-73
2023/11/13 02:51:35;;;;;;;1.43;0.80;;;8.20;99.90;;;;;;494262;240;28496;-73
2023/11/13 02:53:36;;;;;;;1.00;1.00;;;8.20;99.90;;;;;;494230;240;28620;-73
2023/11/13 02:55:37;;;;;;;1.10;1.10;;;8.30;99.90;;;;;;494331;240;27731;-73
2023/11/13 02:57:39;;;;;;;1.20;1.20;;;8.30;99.90;;;;;;494317;238;27985;-74
2023/11/13 02:59:40;;;;;;;2.97;1.00;;;8.30;99.90;;;;;;494244;240;27897;-72
2023/11/13 03:01:41;;;;;;;2.17;1.40;;;8.40;99.90;;;;;;494265;240;27978;-73
2023/11/13 03:03:42;;;;;;;1.00;1.00;;;8.40;99.90;;;;;;494170;240;27483;-73
2023/11/13 03:05:44;;;;;;;1.50;1.40;;;8.50;99.90;;;;;;494271;240;27988;-73
2023/11/13 03:07:45;;;;;;;1.43;1.33;;;8.50;99.90;;;;;;494150;239;27552;-74
2023/11/13 03:09:46;;;;;;;3.13;1.70;;;8.60;99.90;;;;;;494185;240;27619;-73
2023/11/13 03:11:47;;;;;;;2.10;1.60;;;8.70;99.90;;;;;;494179;240;28060;-73
2023/11/13 03:13:49;;;;;;;1.33;1.30;;;8.70;99.90;;;;;;494163;239;28064;-72
2023/11/13 03:15:50;;;;;;;3.33;1.60;;;8.70;99.90;;;;;;494158;240;28097;-73
2023/11/13 03:17:51;;;;;;;3.60;1.63;;;8.80;99.90;;;;;;494189;240;28164;-72
2023/11/13 03:19:52;;;;;;;1.30;1.20;;;8.90;99.90;;;;;;494192;240;28160;-72
2023/11/13 03:21:54;;;;;;;1.90;1.80;;;8.90;99.90;;;;;;494199;240;27853;-73
2023/11/13 03:23:55;;;;;;;1.40;1.30;;;8.90;99.90;;;;;;494189;240;29168;-72
2023/11/13 03:25:59;;;;;;;1.10;1.10;;;9.00;99.90;;;;;;494188;240;28437;-72
2023/11/13 03:27:57;;;;;;;1.20;1.10;;;9.00;99.90;;;;;;494142;240;28418;-73
2023/11/13 03:29:59;;;;;;;1.30;1.20;;;9.00;99.90;;;;;;494181;240;28393;-73
2023/11/13 03:32:00;;;;;;;3.43;1.20;;;9.00;99.90;;;;;;494268;240;28594;-73
2023/11/13 03:34:01;;;;;;;1.90;1.00;;;9.10;99.90;;;;;;494211;240;28676;-73
2023/11/13 03:36:02;;;;;;;1.07;1.00;;;9.10;99.90;;;;;;494190;240;27982;-73
2023/11/13 03:38:04;;;;;;;1.17;1.10;;;9.10;99.90;;;;;;494191;240;27974;-73
2023/11/13 03:40:06;;;;;;;2.00;1.40;;;9.20;99.90;;;;;;494270;238;27929;-72
2023/11/13 03:42:06;;;;;;;1.07;0.97;;;9.30;99.90;;;;;;494227;238;27983;-73
2023/11/13 03:44:07;;;;;;;1.47;1.20;;;9.40;99.90;;;;;;494159;240;28056;-72
2023/11/13 03:46:09;;;;;;;3.57;1.43;;;9.30;99.90;;;;;;494249;240;27827;-73
2023/11/13 03:48:10;;;;;;;1.50;1.40;;;9.40;99.90;;;;;;494262;240;27856;-73
2023/11/13 03:50:11;;;;;;;4.43;1.50;;;9.40;99.90;;;;;;494266;240;27602;-73
2023/11/13 03:52:13;;;;;;;2.17;1.40;;;9.50;99.90;;;;;;494188;240;27947;-72
2023/11/13 03:54:14;;;;;;;2.20;1.40;;;9.50;99.90;;;;;;494191;240;28265;-73
2023/11/13 03:56:15;;;;;;;4.17;1.50;;;9.50;99.90;;;;;;494206;240;28038;-72
2023/11/13 03:58:16;;;;;;;5.97;1.77;;;9.50;99.90;;;;;;494174;240;27773;-72
2023/11/13 04:00:17;;;;;;;5.30;1.70;;;9.50;99.90;;;;;;494234;240;27585;-72
2023/11/13 04:02:19;;;;;;;4.93;1.60;;;9.50;99.90;;;;;;494209;238;27936;-72
2023/11/13 04:04:20;;;;;;;2.50;1.53;;;9.50;99.90;;;;;;494255;240;28628;-72
2023/11/13 04:06:21;;;;;;;1.67;1.30;;;9.60;99.90;;;;;;494250;239;28523;-73
2023/11/13 04:08:22;;;;;;;4.10;1.83;;;9.60;99.90;;;;;;494220;240;28455;-73
2023/11/13 04:10:24;;;;;;;6.47;1.60;;;9.60;99.90;;;;;;494238;240;29103;-73
2023/11/13 04:12:25;;;;;;;3.10;1.50;;;9.60;99.90;;;;;;494180;240;29343;-73
2023/11/13 04:14:26;;;;;;;6.60;1.80;;;9.50;99.90;;;;;;494162;240;28104;-73
2023/11/13 04:16:27;;;;;;;2.53;1.47;;;9.60;99.90;;;;;;494231;239;27809;-72
2023/11/13 04:18:29;;;;;;;4.93;1.87;;;9.60;99.90;;;;;;494226;240;27598;-72
2023/11/13 04:20:31;;;;;;;4.60;2.20;;;9.60;99.90;;;;;;494261;240;27965;-73
2023/11/13 04:22:31;;;;;;;6.87;2.07;;;9.60;99.90;;;;;;494139;240;27945;-72
2023/11/13 04:24:32;;;;;;;8.97;2.10;;;9.60;99.90;;;;;;494185;240;28048;-73
2023/11/13 04:26:34;;;;;;;10.87;2.80;;;9.60;99.90;;;;;;494163;240;28054;-72
2023/11/13 04:28:35;;;;;;;9.87;2.70;;;9.60;99.90;;;;;;494169;239;27997;-73
2023/11/13 04:30:36;;;;;;;4.33;2.23;;;9.60;99.90;;;;;;494245;240;27937;-73
2023/11/13 04:32:37;;;;;;;11.00;2.53;;;9.60;99.90;;;;;;494256;240;28064;-72
2023/11/13 04:34:39;;;;;;;10.10;3.40;;;9.60;99.90;;;;;;494186;240;28098;-73
2023/11/13 04:36:40;;;;;;;16.90;3.40;;;9.70;99.90;;;;;;494207;240;28033;-73
2023/11/13 04:38:41;;;;;;;11.33;2.90;;;9.70;99.90;;;;;;494255;240;28182;-73
2023/11/13 04:40:42;;;;;;;11.73;3.07;;;9.70;99.90;;;;;;494203;240;28307;-73
2023/11/13 04:42:44;;;;;;;13.63;2.53;;;9.60;99.90;;;;;;494216;240;28141;-73
2023/11/13 04:44:45;;;;;;;12.50;2.53;;;9.60;99.90;;;;;;494283;240;27960;-73
2023/11/13 04:46:46;;;;;;;6.60;2.80;;;9.70;99.90;;;;;;494285;240;27492;-73
2023/11/13 04:48:47;;;;;;;12.57;2.70;;;9.70;99.90;;;;;;494251;239;27961;-72
2023/11/13 04:50:49;;;;;;;14.43;3.20;;;9.70;99.90;;;;;;494208;240;28004;-72
2023/11/13 04:52:50;;;;;;;14.40;2.87;;;9.70;99.90;;;;;;494196;240;27794;-72
2023/11/13 04:54:52;;;;;;;6.23;2.30;;;9.70;99.90;;;;;;494178;239;27615;-73
2023/11/13 04:56:54;;;;;;;15.53;3.77;;;9.60;99.90;;;;;;494222;240;28461;-74
2023/11/13 04:58:54;;;;;;;14.43;3.10;;;9.60;99.90;;;;;;494203;240;27950;-72
2023/11/13 05:00:56;;;;;;;10.30;3.10;;;9.60;99.90;;;;;;494183;240;28041;-72
2023/11/13 05:02:56;;;;;;;7.13;2.60;;;9.60;99.90;;;;;;494174;239;28106;-72
2023/11/13 05:04:57;;;;;;;13.67;2.67;;;9.60;99.90;;;;;;494153;240;28537;-73
2023/11/13 05:06:59;;;;;;;21.53;4.23;;;9.60;99.90;;;;;;494177;240;28298;-73
2023/11/13 05:09:00;;;;;;;13.50;3.60;;;9.60;99.90;;;;;;494271;240;28394;-72
2023/11/13 05:11:02;;;;;;;10.27;3.50;;;9.60;99.90;;;;;;494248;240;28375;-73
2023/11/13 05:13:02;;;;;;;13.30;3.17;;;9.50;99.90;;;;;;494210;240;27923;-72
2023/11/13 05:15:04;;;;;;;15.37;3.93;;;9.50;99.90;;;;;;494180;240;27956;-72
2023/11/13 05:17:05;;;;;;;33.23;4.67;;;9.60;99.90;;;;;;494231;240;28099;-74
2023/11/13 05:19:06;;;;;;;15.60;3.17;;;9.60;99.90;;;;;;494129;240;27850;-72
2023/11/13 05:21:07;;;;;;;20.87;4.60;;;9.60;99.90;;;;;;494139;240;28004;-72
2023/11/13 05:23:09;;;;;;;24.90;4.70;;;9.60;99.90;;;;;;494090;240;27948;-73
2023/11/13 05:25:11;;;;;;;32.13;4.53;;;9.60;99.90;;;;;;494167;240;27941;-72
2023/11/13 05:27:12;;;;;;;24.07;5.00;;;9.60;99.90;;;;;;494156;240;28072;-73
2023/11/13 05:29:12;;;;;;;20.80;5.00;;;9.60;99.90;;;;;;494168;240;27941;-73
2023/11/13 05:31:17;;;;;;;22.40;4.20;;;9.60;99.90;;;;;;494125;240;28680;-73
2023/11/13 05:33:15;;;;;;;17.50;4.87;;;9.60;99.90;;;;;;494066;240;28519;-73
2023/11/13 05:35:16;;;;;;;18.30;4.00;;;9.60;99.90;;;;;;494181;239;28476;-72
2023/11/13 05:37:17;;;;;;;23.10;4.63;;;9.60;99.90;;;;;;494168;240;28005;-72
2023/11/13 05:39:21;;;;;;;20.90;4.70;;;9.60;99.90;;;;;;494133;240;28548;-72
2023/11/13 05:41:20;;;;;;;20.73;4.77;;;9.60;99.90;;;;;;494079;240;27851;-72
2023/11/13 05:43:21;;;;;;;29.47;6.50;;;9.60;99.90;;;;;;494155;240;28079;-74
2023/11/13 05:45:22;;;;;;;20.63;4.30;;;9.60;99.90;;;;;;494182;240;27816;-72
2023/11/13 05:47:24;;;;;;;23.00;5.43;;;9.60;99.90;;;;;;494157;240;27880;-72
2023/11/13 05:49:25;;;;;;;21.43;4.60;;;9.60;99.90;;;;;;494155;240;27815;-72
2023/11/13 05:51:26;;;;;;;23.23;5.90;;;9.60;99.90;;;;;;494177;240;27986;-72
2023/11/13 05:53:27;;;;;;;21.17;5.70;;;9.60;99.90;;;;;;494168;239;28083;-73
2023/11/13 05:55:29;;;;;;;26.03;4.53;;;9.60;99.90;;;;;;494139;240;28379;-72
2023/11/13 05:57:30;;;;;;;29.37;5.13;;;9.60;99.90;;;;;;494128;240;28542;-72
2023/11/13 05:59:31;;;;;;;29.57;6.33;;;9.60;99.90;;;;;;494169;240;28403;-73
2023/11/13 06:01:33;;;;;;;17.00;4.40;;;9.60;99.90;;;;;;494167;240;27829;-72
2023/11/13 06:03:34;;;;;;;23.10;5.90;;;9.60;99.90;;;;;;494165;240;27837;-73
2023/11/13 06:05:35;;;;;;;20.97;5.40;;;9.60;99.90;;;;;;494190;240;27808;-73
2023/11/13 06:07:37;;;;;;;18.43;4.13;;;9.60;99.90;;;;;;494164;240;27640;-73
2023/11/13 06:09:38;;;;;;;21.13;4.37;;;9.60;99.90;;;;;;494214;240;28045;-74
2023/11/13 06:11:39;;;;;;;17.03;4.33;;;9.60;99.90;;;;;;494150;240;27934;-72
2023/11/13 06:13:40;;;;;;;10.67;4.10;;;9.60;99.90;;;;;;494226;240;27795;-73
2023/11/13 06:15:41;;;;;;;11.73;3.63;;;9.60;99.90;;;;;;494143;240;27951;-72
2023/11/13 06:17:42;;;;;;;10.17;3.50;;;9.50;99.90;;;;;;494176;240;27915;-72
2023/11/13 06:19:44;;;;;;;13.30;3.50;;;9.60;99.90;;;;;;494123;239;28598;-73
2023/11/13 06:21:45;;;;;;;21.77;4.60;;;9.60;99.90;;;;;;494153;240;28452;-72
2023/11/13 06:23:46;;;;;;;22.87;5.80;;;9.60;99.90;;;;;;494177;240;28103;-73
2023/11/13 06:25:47;;;;;;;20.27;5.57;;;9.60;99.90;;;;;;494157;240;28177;-75
2023/11/13 06:27:49;;;;;;;11.30;3.60;;;9.60;99.90;;;;;;494185;240;27717;-72
2023/11/13 06:29:50;;;;;;;29.93;4.40;;;9.60;99.90;;;;;;494137;240;27983;-72
2023/11/13 06:31:51;;;;;;;29.80;6.03;;;9.60;99.90;;;;;;494162;240;27929;-72
2023/11/13 06:33:52;;;;;;;16.53;4.90;;;9.60;99.90;;;;;;494153;240;28069;-73
2023/11/13 06:35:54;;;;;;;24.50;5.30;;;9.60;99.90;;;;;;494168;240;27637;-74
2023/11/13 06:37:56;;;;;;;15.33;4.47;;;9.60;99.90;;;;;;494163;240;28024;-73
2023/11/13 06:39:57;;;;;;;18.53;4.53;;;9.50;99.90;;;;;;494156;238;28102;-74
2023/11/13 06:41:57;;;;;;;19.60;5.00;;;9.50;99.90;;;;;;494219;240;27702;-72
2023/11/13 06:44:02;;;;;;;25.33;5.17;;;9.50;99.90;;;;;;494244;239;27865;-72
2023/11/13 06:46:00;;;;;;;25.83;4.93;;;9.50;99.90;;;;;;494088;240;28423;-72
2023/11/13 06:48:01;;;;;;;31.93;6.20;;;9.50;99.90;;;;;;494260;240;28041;-72
2023/11/13 06:50:02;;;;;;;26.23;5.13;;;9.50;99.90;;;;;;494161;240;28454;-73
2023/11/13 06:52:04;;;;;;;23.97;5.40;;;9.60;99.90;;;;;;494184;239;27831;-73
2023/11/13 06:54:07;;;;;;;25.20;5.10;;;9.60;99.90;;;;;;494215;240;27799;-72
2023/11/13 06:56:06;;;;;;;15.40;3.90;;;9.50;99.90;;;;;;494095;240;27900;-73
2023/11/13 06:58:07;;;;;;;17.93;4.73;;;9.60;99.90;;;;;;494078;240;27796;-72
2023/11/13 07:00:09;;;;;;;18.03;3.93;;;9.60;99.90;;;;;;494198;240;27719;-73
2023/11/13 07:02:10;;;;;;;16.70;4.37;;;9.50;99.90;;;;;;494199;239;27927;-74
2023/11/13 07:04:11;;;;;;;14.33;3.87;;;9.50;99.90;;;;;;494209;239;28035;-73
2023/11/13 07:06:12;;;;;;;11.83;3.87;;;9.50;99.90;;;;;;494225;240;28062;-72
2023/11/13 07:08:14;;;;;;;13.90;3.57;;;9.40;99.90;;;;;;494117;240;27937;-72
2023/11/13 07:10:15;;;;;;;12.63;4.03;;;9.40;99.90;;;;;;494179;240;28419;-73
2023/11/13 07:12:16;;;;;;;12.23;2.93;;;9.40;99.90;;;;;;494255;239;28489;-74
2023/11/13 07:14:17;;;;;;;16.07;3.90;;;9.40;99.90;;;;;;494301;240;28396;-74
2023/11/13 07:16:20;;;;;;;5.10;2.70;;;9.30;99.90;;;;;;494284;240;28004;-72
2023/11/13 07:18:20;;;;;;;7.37;3.20;;;9.30;99.90;;;;;;494147;240;27898;-73
2023/11/13 07:20:22;;;;;;;7.37;2.80;;;9.30;99.90;;;;;;494280;240;27925;-73
2023/11/13 07:22:22;;;;;;;6.30;2.97;;;9.30;99.90;;;;;;494274;240;27857;-74
2023/11/13 07:24:24;;;;;;;8.50;3.83;;;9.30;99.90;;;;;;494285;240;27593;-72
2023/11/13 07:26:26;;;;;;;16.40;3.80;;;9.30;99.90;;;;;;494196;238;27946;-72
2023/11/13 07:28:26;;;;;;;12.33;3.17;;;9.30;99.90;;;;;;494259;240;28086;-72
2023/11/13 07:30:27;;;;;;;7.70;3.70;;;9.40;99.90;;;;;;494267;240;28011;-73
2023/11/13 07:32:29;;;;;;;6.77;3.60;;;9.30;99.90;;;;;;494275;240;27949;-73
2023/11/13 07:34:32;;;;;;;13.67;3.50;;;9.40;99.90;;;;;;494202;240;27569;-72
2023/11/13 07:36:31;;;;;;;9.90;3.00;;;9.40;99.90;;;;;;494217;240;27968;-72
2023/11/13 07:38:33;;;;;;;12.53;2.70;;;9.40;99.90;;;;;;494296;240;27881;-74
2023/11/13 07:40:35;;;;;;;10.03;2.73;;;9.40;99.90;;;;;;494290;240;28268;-72
2023/11/13 07:42:35;;;;;;;9.47;2.90;;;9.40;99.90;;;;;;494154;240;28397;-73
2023/11/13 07:44:37;;;;;;;11.17;3.50;;;9.40;99.90;;;;;;494250;240;28481;-72
2023/11/13 07:46:37;;;;;;;12.67;3.60;;;9.40;99.90;;;;;;494157;240;28140;-73
2023/11/13 07:48:40;;;;;;;7.13;2.53;;;9.40;99.90;;;;;;494194;239;27600;-73
2023/11/13 07:50:41;;;;;;;5.93;2.27;;;9.40;99.90;;;;;;494142;240;27955;-73
2023/11/13 07:52:45;;;;;;;6.73;2.47;;;9.40;99.90;;;;;;494135;240;27973;-73
2023/11/13 07:54:42;;;;;;;9.33;2.30;;;9.40;99.90;;;;;;494067;240;27999;-72
2023/11/13 07:56:44;;;;;;;10.90;2.70;;;9.30;99.90;;;;;;494247;240;28057;-73
2023/11/13 07:58:45;;;;;;;17.13;4.03;;;9.30;99.90;;;;;;494268;240;27652;-72
2023/11/13 08:00:46;;;;;;;3.63;2.10;;;9.30;99.90;;;;;;494244;239;27626;-72
2023/11/13 08:02:47;;;;;;;9.70;2.50;;;9.20;99.90;;;;;;494219;240;27770;-73
2023/11/13 08:04:49;;;;;;;5.43;2.57;;;9.20;99.90;;;;;;494260;238;27759;-74
2023/11/13 08:06:50;;;;;;;8.83;2.47;;;9.20;99.90;;;;;;494268;240;27713;-74
2023/11/13 08:08:51;;;;;;;4.17;2.30;;;9.20;99.90;;;;;;494257;240;27957;-73
2023/11/13 08:10:53;;;;;;;6.53;2.13;;;9.20;99.90;;;;;;494230;240;27946;-72
2023/11/13 08:12:54;;;;;;;8.50;2.57;;;9.20;99.90;;;;;;494168;240;27687;-73
2023/11/13 08:14:55;;;;;;;4.00;1.50;;;9.30;99.90;;;;;;494189;239;28533;-74
2023/11/13 08:16:57;;;;;;;4.87;2.23;;;9.20;99.90;;;;;;494170;240;28912;-72
2023/11/13 08:18:57;;;;;;;3.67;1.90;;;9.20;99.90;;;;;;494186;240;28092;-72
2023/11/13 08:20:59;;;;;;;6.20;1.93;;;9.30;99.90;;;;;;494070;240;28463;-72
2023/11/13 08:23:00;;;;;;;8.03;1.60;;;9.20;99.90;;;;;;494226;240;28438;-73
2023/11/13 08:25:01;;;;;;;10.97;2.37;;;9.20;99.90;;;;;;494262;240;27731;-73
2023/11/13 08:27:03;;;;;;;4.03;2.07;;;9.30;99.90;;;;;;494237;240;27906;-72
2023/11/13 08:29:04;;;;;;;5.33;2.40;;;9.20;99.90;;;;;;494142;240;27728;-72
2023/11/13 08:31:05;;;;;;;3.80;1.87;;;9.30;99.90;;;;;;494122;240;27917;-72
2023/11/13 08:33:06;;;;;;;11.13;2.33;;;9.20;99.90;;;;;;494063;240;27603;-73
2023/11/13 08:35:12;;;;;;;8.10;1.90;;;9.20;99.90;;;;;;494152;240;28019;-74
2023/11/13 08:37:09;;;;;;;2.83;1.40;;;9.30;99.90;;;;;;493976;240;27974;-72
2023/11/13 08:39:10;;;;;;;2.23;1.50;;;9.30;99.90;;;;;;494144;240;28014;-72
2023/11/13 08:41:13;;;;;;;2.53;1.93;;;9.40;99.90;;;;;;494277;240;28345;-74
2023/11/13 08:43:12;;;;;;;2.20;1.73;;;9.30;99.90;;;;;;494223;240;27911;-72
2023/11/13 08:45:15;;;;;;;5.57;1.53;;;9.40;99.90;;;;;;494285;240;27882;-73
2023/11/13 08:47:19;;;;;;;4.47;1.60;;;9.40;99.90;;;;;;494106;240;28144;-72
2023/11/13 08:49:21;;;;;;;2.00;1.47;;;9.40;99.90;;;;;;494137;240;27961;-72
2023/11/13 08:51:20;;;;;;;5.03;1.50;;;9.50;99.90;;;;;;494160;240;27851;-72
2023/11/13 08:53:23;;;;;;;5.23;1.57;;;9.50;99.90;;;;;;494238;240;27967;-73
2023/11/13 08:55:24;;;;;;;3.97;1.50;;;9.50;99.90;;;;;;494143;240;27949;-72
2023/11/13 08:57:24;;;;;;;6.60;1.80;;;9.60;99.90;;;;;;494099;239;27867;-72
2023/11/13 08:59:25;;;;;;;9.23;2.27;;;9.60;99.90;;;;;;494171;239;27969;-73
2023/11/13 09:01:29;;;;;;;6.30;2.17;;;9.80;99.90;;;;;;494184;240;27943;-73
2023/11/13 09:03:29;;;;;;;5.17;2.27;;;9.80;99.90;;;;;;494187;240;27823;-73
2023/11/13 09:05:29;;;;;;;5.00;2.40;;;9.90;99.90;;;;;;494199;239;27909;-72
2023/11/13 09:07:31;;;;;;;5.00;1.73;;;9.90;99.90;;;;;;494193;240;27992;-72
2023/11/13 09:09:32;;;;;;;6.13;2.03;;;9.90;99.90;;;;;;494193;240;28066;-74
2023/11/13 09:11:33;;;;;;;3.13;1.80;;;9.90;99.90;;;;;;494177;240;27582;-72
2023/11/13 09:13:34;;;;;;;11.97;2.20;;;10.00;99.90;;;;;;494170;240;28092;-72
2023/11/13 09:15:36;;;;;;;4.63;1.93;;;10.00;99.90;;;;;;494174;240;28443;-72
2023/11/13 09:17:41;;;;;;;2.10;1.80;;;10.00;99.90;;;;;;494124;239;28282;-72
2023/11/13 09:19:41;;;;;;;10.17;2.70;;;10.10;99.90;;;;;;494006;240;27934;-73
2023/11/13 09:21:39;;;;;;;15.23;3.43;;;10.10;99.90;;;;;;494112;240;27939;-72
2023/11/13 09:23:40;;;;;;;10.40;3.20;;;10.20;99.90;;;;;;494163;240;27879;-73
2023/11/13 09:25:42;;;;;;;6.50;2.47;;;10.40;99.90;;;;;;494175;240;27720;-73
2023/11/13 09:27:43;;;;;;;13.03;3.13;;;10.50;99.90;;;;;;494165;240;27945;-72
2023/11/13 09:29:44;;;;;;;6.80;2.73;;;10.50;99.90;;;;;;494235;240;27691;-73
2023/11/13 09:31:47;;;;;;;7.70;2.97;;;10.50;99.90;;;;;;494188;237;28037;-72
2023/11/13 09:33:47;;;;;;;12.60;3.40;;;10.50;99.90;;;;;;493956;240;28475;-72
2023/11/13 09:35:48;;;;;;;9.10;3.43;;;10.60;99.90;;;;;;494222;240;28649;-73
2023/11/13 09:37:49;;;;;;;7.73;2.90;;;10.70;99.90;;;;;;494157;238;28464;-73
2023/11/13 09:39:51;;;;;;;12.40;2.90;;;10.70;99.90;;;;;;494222;240;28594;-72
2023/11/13 09:41:53;;;;;;;6.07;2.77;;;10.80;99.90;;;;;;494208;240;28262;-72
2023/11/13 09:43:53;;;;;;;11.20;3.20;;;10.80;99.90;;;;;;494185;240;27991;-73
2023/11/13 09:45:55;;;;;;;8.23;3.13;;;10.90;99.90;;;;;;494196;240;28073;-74
2023/11/13 09:47:56;;;;;;;9.93;3.03;;;10.90;99.90;;;;;;494153;240;27975;-73
2023/11/13 09:49:57;;;;;;;17.27;2.93;;;10.90;99.90;;;;;;494090;239;28133;-73
2023/11/13 09:51:58;;;;;;;11.93;2.77;;;11.00;99.90;;;;;;494199;240;27996;-72
2023/11/13 09:53:59;;;;;;;9.17;3.20;;;11.10;99.90;;;;;;494224;240;28251;-72
2023/11/13 09:56:00;;;;;;;5.63;2.57;;;11.10;99.90;;;;;;494270;240;28622;-74
2023/11/13 09:58:02;;;;;;;11.20;2.93;;;11.10;99.90;;;;;;494180;240;28488;-73
2023/11/13 10:00:03;;;;;;;13.30;3.20;;;11.10;99.90;;;;;;494211;239;28638;-72
2023/11/13 10:02:08;;;;;;;11.10;3.30;;;11.20;99.90;;;;;;494193;240;28217;-72
2023/11/13 10:04:09;;;;;;;8.37;2.47;;;11.20;99.90;;;;;;494226;240;28314;-73
2023/11/13 10:06:10;;;;;;;4.50;2.10;;;11.30;99.90;;;;;;494210;240;28167;-72
2023/11/13 10:08:11;;;;;;;7.50;2.20;;;11.30;99.90;;;;;;494193;240;28301;-72
2023/11/13 10:10:17;;;;;;;5.70;2.00;;;11.30;99.90;;;;;;494188;240;28070;-72
2023/11/13 10:12:13;;;;;;;4.17;1.90;;;11.40;99.90;;;;;;494032;240;28268;-72
2023/11/13 10:14:18;;;;;;;3.10;1.70;;;11.40;99.90;;;;;;494194;240;28118;-72
2023/11/13 10:16:18;;;;;;;6.00;2.00;;;11.40;99.90;;;;;;494052;240;28202;-72
2023/11/13 10:18:17;;;;;;;4.50;2.03;;;11.40;99.90;;;;;;494058;240;28342;-72
2023/11/13 10:20:19;;;;;;;6.30;2.30;;;11.50;99.90;;;;;;494158;240;29232;-72
2023/11/13 10:22:21;;;;;;;6.13;2.93;;;11.50;99.90;;;;;;494206;240;28615;-72
2023/11/13 10:24:25;;;;;;;7.20;2.40;;;11.50;99.90;;;;;;494138;240;28672;-72
2023/11/13 10:26:22;;;;;;;5.23;2.23;;;11.60;99.90;;;;;;494093;240;28185;-72
2023/11/13 10:28:24;;;;;;;8.50;2.63;;;11.60;99.90;;;;;;494179;240;28098;-72
2023/11/13 10:30:25;;;;;;;3.60;2.50;;;11.50;99.90;;;;;;494204;240;28091;-75
2023/11/13 10:32:26;;;;;;;7.83;2.40;;;11.60;99.90;;;;;;494197;240;28083;-73
2023/11/13 10:34:27;;;;;;;6.90;2.30;;;11.60;99.90;;;;;;494165;240;28238;-72
2023/11/13 10:36:28;;;;;;;8.70;3.00;;;11.60;99.90;;;;;;494219;239;28278;-72